Time;durP1;ratioP1;P1;durP2;ratioP2;P2;SDS_P1;SDS_P2;PMS_P1;PMS_P2;Temp;Humidity;BMP_temperature;BMP_pressure;BME280_temperature;BME280_humidity;BME280_pressure;Samples;Min_cycle;Max_cycle;Signal;HPM_P1;HPM_P2
2024/01/09 00:02:02;;;;;;;15.15;5.68;;;-3.20;99.90;;;;;;4998789;28;20022;-68
2024/01/09 00:04:28;;;;;;;9.75;3.97;;;-3.10;99.90;;;;;;4998326;28;20023;-67
2024/01/09 00:06:53;;;;;;;12.20;4.60;;;-3.00;99.90;;;;;;5014233;28;20022;-66
2024/01/09 00:09:19;;;;;;;10.48;4.40;;;-3.00;99.90;;;;;;4997607;28;20016;-66
2024/01/09 00:11:44;;;;;;;14.95;5.40;;;-3.20;99.90;;;;;;4998260;28;20026;-66
2024/01/09 00:14:11;;;;;;;10.07;3.75;;;-3.40;99.90;;;;;;4997129;28;20078;-66
2024/01/09 00:16:37;;;;;;;10.73;5.32;;;-3.20;99.90;;;;;;4998306;28;20026;-66
2024/01/09 00:19:02;;;;;;;14.15;5.05;;;-3.10;99.90;;;;;;4997394;28;20141;-66
2024/01/09 00:21:28;;;;;;;14.55;5.22;;;-3.10;99.90;;;;;;4998662;28;20077;-67
2024/01/09 00:23:53;;;;;;;12.60;4.47;;;-3.30;99.90;;;;;;5013850;28;20041;-66
2024/01/09 00:26:21;;;;;;;10.50;4.45;;;-3.20;99.90;;;;;;5017121;28;20014;-66
2024/01/09 00:28:46;;;;;;;12.45;4.45;;;-3.10;99.90;;;;;;5017765;28;20101;-66
2024/01/09 00:31:12;;;;;;;10.40;4.50;;;-3.00;99.90;;;;;;5017768;28;20060;-66
2024/01/09 00:33:38;;;;;;;9.93;4.68;;;-3.20;99.90;;;;;;4999110;28;20057;-66
2024/01/09 00:36:04;;;;;;;15.18;5.18;;;-3.20;99.90;;;;;;5014617;28;20078;-66
2024/01/09 00:38:29;;;;;;;10.77;4.60;;;-3.20;99.90;;;;;;5013777;28;20023;-66
2024/01/09 00:40:55;;;;;;;11.85;4.50;;;-3.10;99.90;;;;;;5013558;28;20022;-66
2024/01/09 00:43:20;;;;;;;17.33;6.00;;;-3.20;99.90;;;;;;5013584;28;20036;-66
2024/01/09 00:45:46;;;;;;;13.52;4.13;;;-3.10;99.90;;;;;;4998176;28;20022;-66
2024/01/09 00:48:11;;;;;;;10.88;4.75;;;-3.30;99.90;;;;;;5013404;28;20110;-66
2024/01/09 00:50:37;;;;;;;8.50;3.55;;;-3.50;99.90;;;;;;4997811;28;20033;-66
2024/01/09 00:53:04;;;;;;;13.68;5.40;;;-3.50;99.90;;;;;;4997945;28;20117;-66
2024/01/09 00:55:30;;;;;;;13.30;4.95;;;-3.30;99.90;;;;;;5013956;28;20027;-66
2024/01/09 00:57:55;;;;;;;14.90;4.82;;;-3.50;99.90;;;;;;5016362;28;20032;-66
2024/01/09 01:00:21;;;;;;;13.02;4.85;;;-3.60;99.90;;;;;;5017294;28;20026;-66
2024/01/09 01:02:46;;;;;;;12.20;5.28;;;-3.50;99.90;;;;;;5016238;28;20022;-66
2024/01/09 01:05:15;;;;;;;12.45;4.90;;;-3.40;99.90;;;;;;5017457;28;20014;-66
2024/01/09 01:07:41;;;;;;;9.77;3.97;;;-3.30;99.90;;;;;;5017168;28;20053;-66
2024/01/09 01:10:11;;;;;;;13.15;4.70;;;-3.50;99.90;;;;;;5017254;28;20038;-66
2024/01/09 01:12:37;;;;;;;8.70;4.35;;;-3.50;99.90;;;;;;5017370;28;20072;-66
2024/01/09 01:15:03;;;;;;;13.15;4.47;;;-3.40;99.90;;;;;;5016576;28;20025;-73
2024/01/09 01:17:29;;;;;;;9.25;3.92;;;-3.30;99.90;;;;;;5013749;28;20062;-74
2024/01/09 01:19:54;;;;;;;11.32;4.57;;;-3.20;99.90;;;;;;4997314;28;20030;-74
2024/01/09 01:22:20;;;;;;;12.02;4.45;;;-3.20;99.90;;;;;;4997521;28;20081;-74
2024/01/09 01:24:45;;;;;;;11.48;4.07;;;-3.10;99.90;;;;;;5000915;28;20127;-74
2024/01/09 01:27:11;;;;;;;12.27;4.20;;;-3.00;99.90;;;;;;5001520;28;20101;-74
2024/01/09 01:29:36;;;;;;;9.60;4.13;;;-3.10;99.90;;;;;;5001444;28;20029;-74
2024/01/09 01:32:02;;;;;;;11.38;3.97;;;-3.10;99.90;;;;;;5000655;28;20018;-74
2024/01/09 01:34:28;;;;;;;10.80;4.03;;;-3.20;99.90;;;;;;5002127;28;20118;-74
2024/01/09 01:36:53;;;;;;;17.80;5.10;;;-3.20;99.90;;;;;;5000529;28;20027;-74
2024/01/09 01:39:19;;;;;;;12.07;3.60;;;-3.10;99.90;;;;;;5000503;28;20030;-74
2024/01/09 01:41:44;;;;;;;18.77;5.15;;;-3.00;99.90;;;;;;5000476;28;20026;-74
2024/01/09 01:44:17;;;;;;;17.50;4.80;;;-3.20;99.90;;;;;;5000259;28;20036;-74
2024/01/09 01:46:43;;;;;;;13.60;4.35;;;-3.20;99.90;;;;;;5001148;28;20022;-74
2024/01/09 01:49:11;;;;;;;12.48;4.32;;;-3.20;99.90;;;;;;5000954;28;20026;-74
2024/01/09 01:51:37;;;;;;;12.65;4.28;;;-3.30;99.90;;;;;;5001115;28;20080;-74
2024/01/09 01:54:03;;;;;;;10.60;4.35;;;-3.50;99.90;;;;;;5000371;28;20034;-74
2024/01/09 01:56:29;;;;;;;14.95;4.95;;;-3.40;99.90;;;;;;5000130;28;20026;-74
2024/01/09 01:58:54;;;;;;;10.38;4.47;;;-3.40;99.90;;;;;;5000140;28;20117;-74
2024/01/09 02:01:20;;;;;;;12.32;4.82;;;-3.40;99.90;;;;;;5000912;28;20078;-74
2024/01/09 02:03:46;;;;;;;8.32;3.88;;;-3.30;99.90;;;;;;4999902;28;20037;-74
2024/01/09 02:06:12;;;;;;;9.93;4.30;;;-3.50;99.90;;;;;;5000162;28;20026;-74
2024/01/09 02:08:39;;;;;;;10.68;4.00;;;-3.70;99.90;;;;;;5000729;28;20058;-74
2024/01/09 02:11:05;;;;;;;13.50;4.97;;;-3.70;99.90;;;;;;4999866;28;20030;-74
2024/01/09 02:13:30;;;;;;;9.23;3.55;;;-3.80;99.90;;;;;;5000595;28;20022;-74
2024/01/09 02:15:56;;;;;;;9.05;3.83;;;-3.60;99.90;;;;;;5000792;28;20037;-74
2024/01/09 02:18:22;;;;;;;10.88;4.35;;;-3.60;99.90;;;;;;5000409;28;20034;-74
2024/01/09 02:20:47;;;;;;;8.73;3.38;;;-3.60;99.90;;;;;;5000661;28;20038;-74
2024/01/09 02:23:13;;;;;;;12.18;4.57;;;-3.50;99.90;;;;;;5000498;28;20030;-74
2024/01/09 02:25:38;;;;;;;8.98;4.30;;;-3.60;99.90;;;;;;5000517;28;20023;-73
2024/01/09 02:28:14;;;;;;;10.80;4.75;;;-3.90;99.90;;;;;;5000942;28;20086;-74
2024/01/09 02:30:41;;;;;;;9.88;4.45;;;-3.80;99.90;;;;;;5000658;28;20019;-74
2024/01/09 02:33:08;;;;;;;8.05;3.72;;;-3.80;99.90;;;;;;5000149;28;20073;-74
2024/01/09 02:35:33;;;;;;;14.48;4.45;;;-3.80;99.90;;;;;;4999416;28;20025;-74
2024/01/09 02:37:59;;;;;;;12.32;4.32;;;-3.70;99.90;;;;;;4999459;28;20031;-73
2024/01/09 02:40:25;;;;;;;8.10;3.55;;;-3.80;99.90;;;;;;5000279;28;20046;-74
2024/01/09 02:42:50;;;;;;;11.38;3.63;;;-3.80;99.90;;;;;;5000034;28;20030;-74
2024/01/09 02:45:16;;;;;;;11.48;3.97;;;-3.80;99.90;;;;;;5000060;28;20027;-74
2024/01/09 02:47:42;;;;;;;10.98;4.28;;;-3.70;99.90;;;;;;5000000;28;20029;-74
2024/01/09 02:50:07;;;;;;;12.15;4.03;;;-3.90;99.90;;;;;;4999516;28;20023;-74
2024/01/09 02:52:33;;;;;;;12.30;4.20;;;-3.80;99.90;;;;;;4998948;28;20019;-74
2024/01/09 02:54:58;;;;;;;8.73;3.88;;;-3.80;99.90;;;;;;4999576;28;20026;-74
2024/01/09 02:57:24;;;;;;;15.40;4.25;;;-3.80;99.90;;;;;;5000645;28;20026;-76
2024/01/09 02:59:49;;;;;;;10.82;4.25;;;-3.60;99.90;;;;;;5000055;28;20018;-67
2024/01/09 03:02:15;;;;;;;9.18;3.63;;;-3.60;99.90;;;;;;4999798;28;20061;-66
2024/01/09 03:04:41;;;;;;;9.65;3.70;;;-3.70;99.90;;;;;;4999307;28;20034;-66
2024/01/09 03:07:06;;;;;;;10.18;4.20;;;-3.50;99.90;;;;;;5000273;28;20026;-66
2024/01/09 03:09:33;;;;;;;11.15;4.53;;;-3.70;99.90;;;;;;5000880;28;20022;-66
2024/01/09 03:12:03;;;;;;;14.45;3.65;;;-3.60;99.90;;;;;;5001255;28;20023;-66
2024/01/09 03:14:29;;;;;;;9.07;3.90;;;-3.80;99.90;;;;;;5000608;28;20038;-66
2024/01/09 03:16:54;;;;;;;9.95;4.28;;;-3.90;99.90;;;;;;4999165;28;20083;-66
2024/01/09 03:19:20;;;;;;;8.68;3.67;;;-3.80;99.90;;;;;;4999157;28;20062;-66
2024/01/09 03:21:45;;;;;;;13.35;3.83;;;-3.80;99.90;;;;;;4998946;28;20054;-66
2024/01/09 03:24:11;;;;;;;8.35;3.30;;;-3.70;99.90;;;;;;4999231;28;20132;-66
2024/01/09 03:26:36;;;;;;;9.73;3.70;;;-3.60;99.90;;;;;;4999826;28;20036;-66
2024/01/09 03:29:04;;;;;;;8.55;3.33;;;-3.60;99.90;;;;;;4999253;28;20029;-67
2024/01/09 03:31:30;;;;;;;6.50;3.78;;;-3.60;99.90;;;;;;4999278;28;20018;-66
2024/01/09 03:33:56;;;;;;;7.82;3.38;;;-3.80;99.90;;;;;;4998302;28;20035;-66
2024/01/09 03:36:23;;;;;;;11.55;3.97;;;-3.80;99.90;;;;;;4999251;28;20026;-66
2024/01/09 03:38:50;;;;;;;10.43;3.75;;;-4.00;99.90;;;;;;4998174;28;20073;-66
2024/01/09 03:41:16;;;;;;;10.48;3.65;;;-4.00;99.90;;;;;;4999178;28;20045;-66
2024/01/09 03:43:42;;;;;;;13.18;4.05;;;-3.80;99.90;;;;;;4999093;28;20031;-66
2024/01/09 03:46:07;;;;;;;7.70;3.63;;;-3.80;99.90;;;;;;4998746;28;20049;-66
2024/01/09 03:48:33;;;;;;;8.63;3.15;;;-3.70;99.90;;;;;;4998958;28;20027;-66
2024/01/09 03:50:58;;;;;;;9.10;3.08;;;-3.70;99.90;;;;;;4998939;28;20096;-66
2024/01/09 03:53:24;;;;;;;9.55;3.63;;;-3.60;99.90;;;;;;4998927;28;20127;-66
2024/01/09 03:55:51;;;;;;;9.57;4.03;;;-3.50;99.90;;;;;;4998228;28;20054;-67
2024/01/09 03:58:17;;;;;;;9.30;3.25;;;-3.70;99.90;;;;;;4997814;28;20117;-66
2024/01/09 04:00:42;;;;;;;9.38;2.97;;;-3.70;99.90;;;;;;4998200;28;20023;-66
2024/01/09 04:03:08;;;;;;;10.52;3.40;;;-3.80;99.90;;;;;;4998860;28;20026;-66
2024/01/09 04:05:33;;;;;;;9.60;3.78;;;-3.80;99.90;;;;;;4997820;28;20026;-66
2024/01/09 04:07:59;;;;;;;10.27;3.38;;;-3.90;99.90;;;;;;4997770;28;20057;-66
2024/01/09 04:10:24;;;;;;;12.18;3.55;;;-3.70;99.90;;;;;;4997634;28;20089;-66
2024/01/09 04:12:50;;;;;;;7.10;3.15;;;-3.50;99.90;;;;;;4998375;28;20085;-66
2024/01/09 04:15:16;;;;;;;6.85;3.33;;;-3.70;99.90;;;;;;4997616;28;20118;-66
2024/01/09 04:17:41;;;;;;;9.07;3.63;;;-3.80;99.90;;;;;;4997824;28;20026;-66
2024/01/09 04:20:10;;;;;;;6.97;3.05;;;-4.00;99.90;;;;;;4998663;28;20057;-66
2024/01/09 04:22:36;;;;;;;10.35;4.18;;;-4.10;99.90;;;;;;4997245;28;20030;-67
2024/01/09 04:25:02;;;;;;;6.57;3.03;;;-4.20;99.90;;;;;;4997430;28;20025;-66
2024/01/09 04:27:27;;;;;;;9.88;3.72;;;-4.40;99.90;;;;;;4998383;28;20022;-66
2024/01/09 04:29:53;;;;;;;7.43;3.70;;;-4.30;99.90;;;;;;4998091;28;20088;-67
2024/01/09 04:32:18;;;;;;;7.72;2.78;;;-4.10;99.90;;;;;;4997336;28;20031;-66
2024/01/09 04:34:44;;;;;;;10.60;3.85;;;-4.20;99.90;;;;;;4997324;28;20117;-66
2024/01/09 04:37:09;;;;;;;8.70;3.22;;;-4.10;99.90;;;;;;4997162;28;20121;-66
2024/01/09 04:39:35;;;;;;;11.18;2.97;;;-4.10;99.90;;;;;;4997140;28;20033;-67
2024/01/09 04:42:00;;;;;;;12.77;4.30;;;-3.90;99.90;;;;;;4996993;28;20030;-66
2024/01/09 04:44:26;;;;;;;8.55;2.58;;;-3.80;99.90;;;;;;4997191;28;20126;-66
2024/01/09 04:46:51;;;;;;;7.75;3.22;;;-3.90;99.90;;;;;;4997010;28;20072;-66
2024/01/09 04:49:17;;;;;;;7.35;2.80;;;-3.90;99.90;;;;;;4997828;28;20034;-67
2024/01/09 04:51:42;;;;;;;9.00;3.80;;;-3.90;99.90;;;;;;4996951;28;20165;-66
2024/01/09 04:54:08;;;;;;;7.03;2.63;;;-3.90;99.90;;;;;;4997188;28;20117;-66
2024/01/09 04:56:33;;;;;;;8.50;3.25;;;-3.80;99.90;;;;;;5014216;28;20030;-66
2024/01/09 04:58:59;;;;;;;7.57;3.15;;;-3.90;99.90;;;;;;4997491;28;20026;-66
2024/01/09 05:01:25;;;;;;;11.13;3.35;;;-3.90;99.90;;;;;;4997850;28;20072;-66
2024/01/09 05:03:53;;;;;;;9.55;3.70;;;-4.00;99.90;;;;;;4997577;28;20144;-66
2024/01/09 05:06:19;;;;;;;13.75;3.38;;;-4.00;99.90;;;;;;4997766;28;20105;-66
2024/01/09 05:08:45;;;;;;;9.95;3.38;;;-4.00;99.90;;;;;;4997556;28;20022;-66
2024/01/09 05:11:11;;;;;;;7.35;2.90;;;-4.10;99.90;;;;;;4996648;28;20023;-66
2024/01/09 05:13:36;;;;;;;10.45;3.08;;;-4.20;99.90;;;;;;4996670;28;20026;-66
2024/01/09 05:16:02;;;;;;;11.45;3.05;;;-4.00;99.90;;;;;;4997446;28;20033;-66
2024/01/09 05:18:28;;;;;;;10.65;2.50;;;-4.10;99.90;;;;;;4996593;28;20029;-66
2024/01/09 05:20:53;;;;;;;9.82;4.25;;;-4.00;99.90;;;;;;4997532;28;20040;-66
2024/01/09 05:23:19;;;;;;;10.93;3.70;;;-4.00;99.90;;;;;;4997307;28;20026;-67
2024/01/09 05:25:44;;;;;;;8.20;3.13;;;-4.20;99.90;;;;;;4997409;28;20019;-66
2024/01/09 05:28:10;;;;;;;7.45;2.72;;;-4.10;99.90;;;;;;4996660;28;20019;-66
2024/01/09 05:30:36;;;;;;;8.23;3.65;;;-3.90;99.90;;;;;;4997421;28;20034;-66
2024/01/09 05:33:02;;;;;;;6.13;2.38;;;-3.90;99.90;;;;;;4997049;28;20046;-66
2024/01/09 05:35:28;;;;;;;7.65;3.60;;;-3.80;99.90;;;;;;4997240;28;20026;-66
2024/01/09 05:37:53;;;;;;;7.78;3.25;;;-3.90;99.90;;;;;;4996708;28;20034;-66
2024/01/09 05:40:19;;;;;;;8.07;3.00;;;-3.70;99.90;;;;;;4996819;28;20033;-66
2024/01/09 05:42:45;;;;;;;10.73;3.55;;;-3.70;99.90;;;;;;4997758;28;20030;-66
2024/01/09 05:45:11;;;;;;;8.52;3.10;;;-3.60;99.90;;;;;;4996356;28;20050;-66
2024/01/09 05:47:37;;;;;;;7.88;3.00;;;-3.50;99.90;;;;;;4996422;28;20085;-66
2024/01/09 05:50:03;;;;;;;6.25;2.28;;;-3.50;99.90;;;;;;4996375;28;20078;-66
2024/01/09 05:52:28;;;;;;;7.80;3.00;;;-3.50;99.90;;;;;;4997417;28;20034;-66
2024/01/09 05:54:54;;;;;;;8.70;3.50;;;-3.70;99.90;;;;;;5013087;28;20026;-66
2024/01/09 05:57:20;;;;;;;7.07;2.83;;;-3.70;99.90;;;;;;4997229;28;20026;-66
2024/01/09 05:59:46;;;;;;;10.77;3.75;;;-3.80;99.90;;;;;;4996436;28;20061;-66
2024/01/09 06:02:11;;;;;;;17.50;3.58;;;-3.90;99.90;;;;;;4996241;28;20121;-66
2024/01/09 06:04:37;;;;;;;11.25;2.88;;;-3.80;99.90;;;;;;4996092;28;20064;-66
2024/01/09 06:07:02;;;;;;;6.13;3.17;;;-3.90;99.90;;;;;;4996195;28;20023;-66
2024/01/09 06:09:28;;;;;;;9.45;3.05;;;-3.80;99.90;;;;;;4996221;28;20054;-66
2024/01/09 06:11:53;;;;;;;8.20;3.20;;;-3.70;99.90;;;;;;4998828;28;20026;-66
2024/01/09 06:14:19;;;;;;;7.07;3.05;;;-3.80;99.90;;;;;;5000850;28;20026;-66
2024/01/09 06:16:45;;;;;;;9.38;2.97;;;-3.80;99.90;;;;;;4999905;28;20034;-66
2024/01/09 06:19:11;;;;;;;9.13;2.60;;;-3.80;99.90;;;;;;5000023;28;20030;-66
2024/01/09 06:21:36;;;;;;;10.15;3.03;;;-3.80;99.90;;;;;;5000185;28;20057;-66
2024/01/09 06:24:02;;;;;;;8.43;3.00;;;-3.80;99.90;;;;;;4999347;28;20046;-66
2024/01/09 06:26:27;;;;;;;7.53;3.53;;;-3.70;99.90;;;;;;4999800;28;20041;-66
2024/01/09 06:28:53;;;;;;;8.25;3.58;;;-3.80;99.90;;;;;;5000312;28;20042;-66
2024/01/09 06:31:18;;;;;;;5.18;2.83;;;-3.70;99.90;;;;;;4999762;28;20029;-66
2024/01/09 06:33:44;;;;;;;8.20;2.95;;;-3.60;99.90;;;;;;4999732;28;20026;-66
2024/01/09 06:36:10;;;;;;;7.97;3.08;;;-3.60;99.90;;;;;;4999708;28;20164;-66
2024/01/09 06:38:35;;;;;;;6.90;2.72;;;-3.70;99.90;;;;;;4999724;28;20034;-66
2024/01/09 06:41:01;;;;;;;9.02;2.83;;;-3.90;99.90;;;;;;4999702;28;20041;-66
2024/01/09 06:43:26;;;;;;;5.10;2.55;;;-4.00;99.90;;;;;;4999863;28;20038;-66
2024/01/09 06:45:52;;;;;;;4.85;2.47;;;-3.90;99.90;;;;;;4999432;28;20033;-66
2024/01/09 06:48:17;;;;;;;7.38;2.65;;;-3.80;99.90;;;;;;4999948;28;20027;-66
2024/01/09 06:50:43;;;;;;;10.65;3.03;;;-3.70;99.90;;;;;;4999166;28;20018;-66
2024/01/09 06:53:09;;;;;;;7.30;3.30;;;-3.70;99.90;;;;;;4999035;28;20027;-66
2024/01/09 06:55:34;;;;;;;6.18;2.35;;;-3.70;99.90;;;;;;4999196;28;20050;-66
2024/01/09 06:58:02;;;;;;;7.60;2.90;;;-3.60;99.90;;;;;;4999866;28;20114;-66
2024/01/09 07:00:27;;;;;;;12.50;3.20;;;-3.80;99.90;;;;;;4998913;28;20058;-66
2024/01/09 07:02:53;;;;;;;6.80;3.15;;;-3.80;99.90;;;;;;4999993;28;20069;-66
2024/01/09 07:05:19;;;;;;;7.25;3.10;;;-3.60;99.90;;;;;;5019329;28;20022;-66
2024/01/09 07:07:44;;;;;;;7.55;3.20;;;-3.70;99.90;;;;;;5018307;28;20092;-66
2024/01/09 07:10:10;;;;;;;8.85;2.90;;;-3.60;99.90;;;;;;5019942;28;20028;-66
2024/01/09 07:12:35;;;;;;;10.98;3.95;;;-3.80;99.90;;;;;;5018474;28;20030;-66
2024/01/09 07:15:01;;;;;;;6.82;2.63;;;-4.20;99.90;;;;;;5019062;28;20018;-66
2024/01/09 07:17:27;;;;;;;13.00;3.75;;;-4.10;99.90;;;;;;5019373;28;20022;-66
2024/01/09 07:19:52;;;;;;;8.30;3.20;;;-4.20;99.90;;;;;;5019416;28;20097;-66
2024/01/09 07:22:18;;;;;;;8.38;2.38;;;-4.00;99.90;;;;;;5017621;28;20021;-66
2024/01/09 07:24:44;;;;;;;5.85;2.88;;;-3.80;99.90;;;;;;5017970;28;20056;-66
2024/01/09 07:27:09;;;;;;;9.60;3.35;;;-3.80;99.90;;;;;;5018935;28;20022;-66
2024/01/09 07:29:35;;;;;;;7.18;3.40;;;-3.90;99.90;;;;;;5018114;28;20056;-66
2024/01/09 07:32:00;;;;;;;7.05;2.65;;;-3.80;99.90;;;;;;5018150;28;20072;-66
2024/01/09 07:34:54;;;;;;;10.88;2.85;;;-3.80;99.90;;;;;;5115810;27;20368;-65
2024/01/09 07:39:54;;;;;;;6.75;2.90;;;-3.70;99.90;;;;;;5213658;22;20053;-63
2024/01/09 07:42:20;;;;;;;8.35;3.53;;;-3.80;99.90;;;;;;5053334;28;20037;-63
2024/01/09 07:44:46;;;;;;;9.68;2.92;;;-3.80;99.90;;;;;;5054189;28;20025;-63
2024/01/09 07:47:12;;;;;;;11.85;3.30;;;-3.80;99.90;;;;;;5054078;28;20017;-63
2024/01/09 07:49:40;;;;;;;10.93;3.85;;;-3.90;99.90;;;;;;5069059;28;20028;-63
2024/01/09 07:52:06;;;;;;;10.55;3.53;;;-4.10;99.90;;;;;;5073997;28;20045;-62
2024/01/09 07:54:32;;;;;;;5.75;2.83;;;-3.90;99.90;;;;;;5073361;28;20063;-62
2024/01/09 07:56:57;;;;;;;7.53;2.75;;;-3.80;99.90;;;;;;5073771;28;20017;-63
2024/01/09 07:59:23;;;;;;;9.90;2.88;;;-3.80;99.90;;;;;;5072859;28;20093;-63
2024/01/09 08:01:55;;;;;;;7.90;3.08;;;-3.90;99.90;;;;;;5073500;28;20017;-63
2024/01/09 08:04:22;;;;;;;7.07;2.83;;;-3.90;99.90;;;;;;5073129;28;20040;-63
2024/01/09 08:06:50;;;;;;;10.10;3.25;;;-3.60;99.90;;;;;;5073990;28;20021;-63
2024/01/09 08:09:17;;;;;;;7.30;3.22;;;-3.60;99.90;;;;;;5072731;28;20029;-63
2024/01/09 08:11:43;;;;;;;8.23;3.63;;;-3.70;99.90;;;;;;5073441;28;20020;-63
2024/01/09 08:14:09;;;;;;;6.68;2.85;;;-3.80;99.90;;;;;;5072704;28;20107;-63
2024/01/09 08:16:34;;;;;;;9.65;2.90;;;-3.80;99.90;;;;;;5073500;28;20218;-62
2024/01/09 08:19:00;;;;;;;7.28;2.80;;;-3.60;99.90;;;;;;5072602;28;20024;-63
2024/01/09 08:21:26;;;;;;;7.95;2.80;;;-3.60;99.90;;;;;;5073513;28;20021;-63
2024/01/09 08:23:51;;;;;;;12.73;3.17;;;-3.60;99.90;;;;;;5073215;28;20027;-63
2024/01/09 08:26:17;;;;;;;9.57;2.90;;;-3.70;99.90;;;;;;5073365;28;20033;-63
2024/01/09 08:28:43;;;;;;;7.88;3.25;;;-3.90;99.90;;;;;;5072361;28;20029;-63
2024/01/09 08:31:08;;;;;;;7.38;3.20;;;-3.70;99.90;;;;;;5073317;28;20021;-63
2024/01/09 08:33:34;;;;;;;11.40;3.67;;;-3.80;99.90;;;;;;5072885;28;20021;-62
2024/01/09 08:36:01;;;;;;;9.45;3.30;;;-3.70;99.90;;;;;;5072905;28;20024;-63
2024/01/09 08:38:27;;;;;;;12.55;3.38;;;-3.50;99.90;;;;;;5072794;28;20013;-62
2024/01/09 08:40:55;;;;;;;6.25;2.63;;;-3.50;99.90;;;;;;5071803;28;20025;-63
2024/01/09 08:43:21;;;;;;;6.10;2.70;;;-3.40;99.90;;;;;;5072370;28;20051;-63
2024/01/09 08:45:48;;;;;;;6.60;2.63;;;-3.30;99.90;;;;;;5062400;28;20025;-63
2024/01/09 08:48:14;;;;;;;9.38;3.22;;;-3.20;99.90;;;;;;5059874;28;20175;-63
2024/01/09 08:50:39;;;;;;;11.57;3.33;;;-3.30;99.90;;;;;;5058936;28;20061;-63
2024/01/09 08:53:05;;;;;;;12.07;3.50;;;-3.50;99.90;;;;;;5059566;28;20112;-63
2024/01/09 08:55:30;;;;;;;4.72;2.42;;;-3.40;99.90;;;;;;5059515;28;20048;-63
2024/01/09 08:57:56;;;;;;;8.80;3.25;;;-3.30;99.90;;;;;;5058829;28;20087;-63
2024/01/09 09:00:22;;;;;;;7.72;2.97;;;-3.10;99.90;;;;;;5059046;28;20021;-63
2024/01/09 09:02:48;;;;;;;8.70;3.85;;;-3.00;99.90;;;;;;5058814;28;20111;-63
2024/01/09 09:05:13;;;;;;;10.63;3.28;;;-2.80;99.90;;;;;;5059244;28;20060;-63
2024/01/09 09:07:39;;;;;;;7.20;2.90;;;-2.80;99.90;;;;;;5059180;28;20032;-63
2024/01/09 09:10:05;;;;;;;8.10;2.95;;;-2.80;99.90;;;;;;5058189;28;20024;-63
2024/01/09 09:12:31;;;;;;;7.20;3.25;;;-2.70;99.90;;;;;;5059502;28;20129;-63
2024/01/09 09:14:56;;;;;;;9.60;3.22;;;-2.60;99.90;;;;;;5059053;28;20111;-63
2024/01/09 09:17:22;;;;;;;7.40;2.97;;;-2.60;99.90;;;;;;5058016;28;20056;-62
2024/01/09 09:19:47;;;;;;;7.57;3.30;;;-2.50;99.90;;;;;;5058049;28;20025;-63
2024/01/09 09:22:13;;;;;;;12.05;3.13;;;-2.50;99.90;;;;;;5058042;28;20017;-63
2024/01/09 09:24:38;;;;;;;8.88;3.17;;;-2.50;99.90;;;;;;5058101;28;20025;-63
2024/01/09 09:27:04;;;;;;;6.75;2.97;;;-2.40;99.90;;;;;;5058774;28;20025;-63
2024/01/09 09:29:30;;;;;;;8.32;3.25;;;-2.50;99.90;;;;;;5058903;28;20048;-63
2024/01/09 09:31:55;;;;;;;5.30;2.63;;;-2.50;99.90;;;;;;5058738;28;20097;-63
2024/01/09 09:34:21;;;;;;;5.85;3.13;;;-2.40;99.90;;;;;;5058094;28;20028;-62
2024/01/09 09:36:46;;;;;;;7.03;3.42;;;-2.50;99.90;;;;;;5058549;28;20029;-62
2024/01/09 09:39:13;;;;;;;7.85;3.15;;;-2.40;99.90;;;;;;5058494;28;20021;-62
2024/01/09 09:41:43;;;;;;;9.73;2.95;;;-2.60;99.90;;;;;;5057522;28;20033;-62
2024/01/09 09:44:13;;;;;;;7.15;3.25;;;-2.40;99.90;;;;;;5058637;28;20032;-63
2024/01/09 09:46:40;;;;;;;6.90;2.60;;;-2.20;99.90;;;;;;5057679;28;20029;-63
2024/01/09 09:49:08;;;;;;;8.80;3.05;;;-2.10;99.90;;;;;;5058324;28;20033;-63
2024/01/09 09:51:35;;;;;;;6.30;2.65;;;-2.00;99.90;;;;;;5057539;28;20032;-63
2024/01/09 09:54:02;;;;;;;7.85;3.33;;;-1.80;99.90;;;;;;5057504;28;20020;-63
2024/01/09 09:56:28;;;;;;;9.45;3.28;;;-1.70;99.90;;;;;;5057401;28;20025;-63
2024/01/09 09:58:54;;;;;;;8.63;3.30;;;-2.00;99.90;;;;;;5058565;28;20021;-63
2024/01/09 10:01:22;;;;;;;7.25;3.67;;;-2.00;99.90;;;;;;5058239;28;20028;-63
2024/01/09 10:04:02;;;;;;;9.77;3.08;;;-1.80;99.90;;;;;;5058831;28;20029;-63
2024/01/09 10:06:29;;;;;;;11.18;3.88;;;-1.60;99.90;;;;;;5058342;28;20025;-63
2024/01/09 10:08:56;;;;;;;11.57;3.47;;;-1.50;99.90;;;;;;5058112;28;20021;-63
2024/01/09 10:11:22;;;;;;;10.13;3.10;;;-1.30;99.90;;;;;;5057562;28;20067;-62
2024/01/09 10:13:48;;;;;;;11.10;3.53;;;-1.20;99.90;;;;;;5058039;28;20032;-63
2024/01/09 10:16:14;;;;;;;9.52;4.13;;;-1.10;99.90;;;;;;5057999;28;20105;-62
2024/01/09 10:18:39;;;;;;;6.05;3.03;;;-1.00;99.90;;;;;;5056995;28;20075;-62
2024/01/09 10:21:06;;;;;;;8.00;3.33;;;-0.90;99.90;;;;;;5057862;28;20025;-62
2024/01/09 10:23:35;;;;;;;13.98;3.65;;;-0.80;99.90;;;;;;5057847;28;20025;-62
2024/01/09 10:26:04;;;;;;;7.82;3.25;;;-0.80;99.90;;;;;;5057297;28;20021;-62
2024/01/09 10:28:29;;;;;;;10.93;3.55;;;-0.70;99.90;;;;;;5057681;28;20032;-62
2024/01/09 10:30:55;;;;;;;8.10;3.35;;;-0.60;99.90;;;;;;5057983;28;20029;-62
2024/01/09 10:33:20;;;;;;;6.60;2.85;;;-0.60;99.90;;;;;;5056981;28;20048;-62
2024/01/09 10:35:46;;;;;;;10.30;3.30;;;-0.50;99.90;;;;;;5057594;28;20021;-62
2024/01/09 10:38:12;;;;;;;8.05;3.50;;;-0.60;99.90;;;;;;5056581;28;20036;-62
2024/01/09 10:40:38;;;;;;;11.75;3.45;;;-0.50;99.90;;;;;;5056628;28;20025;-61
2024/01/09 10:43:04;;;;;;;15.77;3.65;;;-0.40;99.90;;;;;;5057459;28;20037;-62
2024/01/09 10:45:32;;;;;;;8.10;3.47;;;-0.30;99.90;;;;;;5057593;28;20032;-62
2024/01/09 10:47:59;;;;;;;10.60;4.25;;;-0.30;99.90;;;;;;5056591;28;20035;-62
2024/01/09 10:50:25;;;;;;;10.50;4.15;;;-0.10;99.90;;;;;;5057480;28;20047;-62
2024/01/09 10:52:51;;;;;;;9.35;3.75;;;-0.10;99.90;;;;;;5056665;28;20029;-62
2024/01/09 10:55:18;;;;;;;14.63;3.97;;;-0.20;99.90;;;;;;5056379;28;20045;-62
2024/01/09 10:57:50;;;;;;;8.93;3.60;;;0.00;99.90;;;;;;5057229;28;20040;-62
2024/01/09 11:00:16;;;;;;;11.45;3.30;;;0.00;99.90;;;;;;5056302;28;20025;-62
2024/01/09 11:02:42;;;;;;;7.40;3.72;;;0.30;99.90;;;;;;5056442;28;20091;-62
2024/01/09 11:05:10;;;;;;;12.65;3.60;;;0.40;99.90;;;;;;5056222;28;20021;-62
2024/01/09 11:07:37;;;;;;;11.95;4.35;;;0.60;99.90;;;;;;5056699;28;20056;-62
2024/01/09 11:10:04;;;;;;;10.88;3.63;;;0.50;99.90;;;;;;5056171;28;20021;-62
2024/01/09 11:12:43;;;;;;;10.48;3.97;;;0.70;99.90;;;;;;5057080;28;20013;-62
2024/01/09 11:15:23;;;;;;;13.98;5.32;;;0.70;99.90;;;;;;5056267;28;20029;-61
2024/01/09 11:17:54;;;;;;;7.95;4.38;;;0.50;99.90;;;;;;5056203;28;20116;-62
2024/01/09 11:20:19;;;;;;;10.80;3.95;;;0.70;99.90;;;;;;5056708;28;20021;-62
2024/01/09 11:22:45;;;;;;;11.07;4.18;;;0.80;99.90;;;;;;5056935;28;20025;-62
2024/01/09 11:25:20;;;;;;;8.40;3.78;;;0.70;99.90;;;;;;5056314;28;20195;-62
2024/01/09 11:27:50;;;;;;;13.55;3.95;;;0.90;99.90;;;;;;5056749;28;20021;-62
2024/01/09 11:30:22;;;;;;;13.88;4.97;;;1.10;99.90;;;;;;5056899;28;20106;-62
2024/01/09 11:32:48;;;;;;;8.25;3.35;;;1.10;99.90;;;;;;5057112;28;20017;-62
2024/01/09 11:35:14;;;;;;;12.57;3.50;;;1.20;99.90;;;;;;5056755;28;20031;-62
2024/01/09 11:37:42;;;;;;;14.52;4.03;;;1.20;99.90;;;;;;5056769;28;20219;-62
2024/01/09 11:40:13;;;;;;;9.00;4.10;;;1.40;99.90;;;;;;5056056;28;20044;-62
2024/01/09 11:42:59;;;;;;;10.07;3.83;;;1.10;99.90;;;;;;5057530;28;20087;-62
2024/01/09 11:45:26;;;;;;;9.85;3.85;;;1.20;99.90;;;;;;5057033;28;20086;-62
2024/01/09 11:47:53;;;;;;;12.85;3.88;;;1.20;99.90;;;;;;5056597;28;20021;-62
2024/01/09 11:50:19;;;;;;;14.27;4.68;;;1.20;99.90;;;;;;5056988;28;20017;-62
2024/01/09 11:52:47;;;;;;;23.38;5.18;;;1.50;99.90;;;;;;5055609;28;20025;-62
2024/01/09 11:55:14;;;;;;;9.90;3.53;;;1.80;99.90;;;;;;5055606;28;20017;-62
2024/01/09 11:57:41;;;;;;;14.25;5.05;;;2.00;99.90;;;;;;5056915;28;20044;-61
2024/01/09 12:00:09;;;;;;;14.07;4.22;;;2.20;99.90;;;;;;5057102;28;20017;-62
2024/01/09 12:02:38;;;;;;;9.27;4.40;;;2.10;99.90;;;;;;5056719;28;20021;-62
2024/01/09 12:05:05;;;;;;;9.90;4.10;;;2.20;99.90;;;;;;5056549;28;20055;-62
2024/01/09 12:07:36;;;;;;;10.00;4.13;;;2.20;99.90;;;;;;5056485;28;20025;-62
2024/01/09 12:10:02;;;;;;;10.33;4.20;;;2.00;99.80;;;;;;5056444;28;20040;-62
2024/01/09 12:12:28;;;;;;;12.43;3.42;;;2.00;99.90;;;;;;5056472;28;20032;-62
2024/01/09 12:14:55;;;;;;;9.90;3.25;;;2.40;99.90;;;;;;5056303;28;20338;-62
2024/01/09 12:17:29;;;;;;;8.55;3.72;;;2.30;99.60;;;;;;5056395;28;20025;-62
2024/01/09 12:19:55;;;;;;;9.95;4.00;;;2.60;99.20;;;;;;5056452;28;20075;-62
2024/01/09 12:22:21;;;;;;;12.27;4.93;;;2.60;98.50;;;;;;5059338;28;20024;-62
2024/01/09 12:24:53;;;;;;;11.90;4.07;;;2.50;98.10;;;;;;5060127;28;20025;-61
2024/01/09 12:27:21;;;;;;;11.65;4.07;;;2.60;97.40;;;;;;5060577;28;20028;-62
2024/01/09 12:29:47;;;;;;;9.50;3.95;;;2.60;97.20;;;;;;5059225;28;20029;-62
2024/01/09 12:32:16;;;;;;;9.27;3.58;;;2.60;97.00;;;;;;5060258;28;20057;-67
2024/01/09 12:34:42;;;;;;;8.95;3.50;;;2.60;97.40;;;;;;5059131;28;20071;-68
2024/01/09 12:37:08;;;;;;;7.70;3.60;;;2.80;96.10;;;;;;5059076;28;20055;-68
2024/01/09 12:39:35;;;;;;;9.88;4.18;;;2.90;96.50;;;;;;5059746;28;20048;-68
2024/01/09 12:42:15;;;;;;;10.45;3.92;;;2.80;96.30;;;;;;5058986;28;20107;-68